METAR Data
IDs: Format: Raw Decoded Include TAF

Data at: 2057 UTC 18 Sep 2018

KOVE 182053Z AUTO VRB06KT 10SM CLR 25/10 A2991 RMK AO2 SLP130 T02500100 58021
KOVE 181953Z AUTO 24003KT 10SM CLR 24/09 A2994 RMK AO2 SLP139 T02390089
KOVE 181853Z AUTO VRB03KT 10SM CLR 22/09 A2996 RMK AO2 SLP146 T02170094
KOVE 181753Z AUTO VRB04KT 10SM CLR 20/10 A2997 RMK AO2 SLP151 T02000100 10200 20111 58000
KOVE 181653Z AUTO VRB03KT 10SM CLR 18/11 A2998 RMK AO2 SLP153 T01780111
KOVE 181553Z AUTO 00000KT 10SM CLR 16/11 A2998 RMK AO2 SLP153 T01610106
KOVE 181453Z AUTO 00000KT 10SM CLR 14/10 A2998 RMK AO2 SLP151 T01390100 52014
KOVE 181353Z AUTO 04003KT 10SM CLR 11/08 A2996 RMK AO2 SLP145 T01110083
KOVE 181253Z AUTO 00000KT 10SM CLR 12/08 A2995 RMK AO2 SLP143 T01170083
KOVE 181153Z AUTO 22003KT 10SM CLR 14/09 A2993 RMK AO2 SLP137 T01390094 10183 20133 53001
KOVE 181053Z AUTO 17006KT 10SM CLR 14/08 A2992 RMK AO2 SLP133 T01390078
KOVE 180953Z AUTO 00000KT 10SM CLR 14/08 A2993 RMK AO2 SLP136 T01440078
KOVE 180853Z AUTO 14006KT 10SM CLR 16/08 A2993 RMK AO2 SLP136 T01560083 53004
KOVE 180753Z AUTO 15004KT 10SM CLR 16/08 A2992 RMK AO2 SLP134 T01560083 403000111
KOVE 180653Z AUTO 13006KT 10SM CLR 18/08 A2992 RMK AO2 SLP133 T01780083
KOVE 180553Z AUTO 17007KT 10SM CLR 18/08 A2992 RMK AO2 SLP132 T01780078 10283 20178 51014
KOVE 180453Z AUTO 14003KT 10SM CLR 19/08 A2991 RMK AO2 SLP130 T01940078
KOVE 180353Z AUTO 11004KT 10SM CLR 21/09 A2989 RMK AO2 SLP123 T02110089 TSNO
KOVE 180253Z AUTO 13006KT 10SM CLR 23/10 A2988 RMK AO2 SLP117 T02280100 53001 TSNO
KOVE 180153Z AUTO 16005KT 10SM CLR 25/07 A2987 RMK AO2 SLP116 T02500072
KOVE 180053Z AUTO 21007KT 10SM CLR 28/07 A2987 RMK AO2 SLP116 T02780072
KOVE 172353Z AUTO 21006KT 10SM CLR 28/06 A2987 RMK AO2 SLP117 T02830056 10300 20217 56019
KOVE 172253Z AUTO 00000KT 10SM CLR 28/08 A2989 RMK AO2 SLP122 T02830078
KOVE 172153Z AUTO VRB03KT 10SM CLR 28/08 A2991 RMK AO2 SLP128 T02780083
KOVE 172053Z AUTO 18004KT 10SM CLR 27/08 A2993 RMK AO2 SLP136 T02670078 58017
KOVE 171953Z AUTO 24003KT 10SM CLR 25/10 A2995 RMK AO2 SLP142 T02500100
KOVE 171853Z AUTO 30004KT 10SM CLR 23/08 A2997 RMK AO2 SLP148 T02330083
KOVE 171753Z AUTO 26003KT 10SM CLR 22/08 A2998 RMK AO2 SLP153 T02170083 10217 20111 51001
KOVE 171653Z AUTO 00000KT 10SM CLR 21/09 A2998 RMK AO2 SLP152 T02060089
KOVE 171553Z AUTO 00000KT 10SM CLR 18/08 A2998 RMK AO2 SLP153 T01780083
KOVE 171453Z AUTO 00000KT 10SM CLR 15/07 A2998 RMK AO2 SLP151 T01500067 53012
KOVE 171353Z AUTO 00000KT 10SM CLR 12/06 A2996 RMK AO2 SLP147 T01170061
KOVE 171253Z AUTO 33003KT 10SM CLR 12/07 A2995 RMK AO2 SLP143 T01170067
KOVE 171153Z AUTO 27003KT 10SM CLR 13/07 A2994 RMK AO2 SLP140 T01280072 10167 20128 55002
KOVE 171053Z AUTO 00000KT 10SM CLR 16/08 A2994 RMK AO2 SLP138 T01560078
KOVE 170953Z AUTO 09003KT 10SM CLR 16/08 A2995 RMK AO2 SLP141 T01560078